sensor_id;sensor_type;location;lat;lon;timestamp;P1;durP1;ratioP1;P2;durP2;ratioP2
13327;SDS011;6733;51.044;3.746;2023-02-01T00:00:23;24.10;;;8.07;;
13327;SDS011;6733;51.044;3.746;2023-02-01T00:02:50;19.93;;;7.23;;
13327;SDS011;6733;51.044;3.746;2023-02-01T00:05:16;13.70;;;5.97;;
13327;SDS011;6733;51.044;3.746;2023-02-01T00:07:42;20.97;;;6.53;;
13327;SDS011;6733;51.044;3.746;2023-02-01T00:10:12;17.57;;;6.40;;
13327;SDS011;6733;51.044;3.746;2023-02-01T00:12:38;20.80;;;6.00;;
13327;SDS011;6733;51.044;3.746;2023-02-01T00:15:04;21.97;;;6.50;;
13327;SDS011;6733;51.044;3.746;2023-02-01T00:17:31;15.27;;;5.47;;
13327;SDS011;6733;51.044;3.746;2023-02-01T00:19:57;18.50;;;5.93;;
13327;SDS011;6733;51.044;3.746;2023-02-01T00:22:23;17.17;;;6.93;;
13327;SDS011;6733;51.044;3.746;2023-02-01T00:24:49;16.53;;;6.33;;
13327;SDS011;6733;51.044;3.746;2023-02-01T00:27:15;15.03;;;5.93;;
13327;SDS011;6733;51.044;3.746;2023-02-01T00:29:45;13.57;;;5.83;;
13327;SDS011;6733;51.044;3.746;2023-02-01T00:32:11;19.13;;;5.30;;
13327;SDS011;6733;51.044;3.746;2023-02-01T00:34:37;20.77;;;6.47;;
13327;SDS011;6733;51.044;3.746;2023-02-01T00:37:04;17.30;;;5.70;;
13327;SDS011;6733;51.044;3.746;2023-02-01T00:39:30;21.77;;;6.43;;
13327;SDS011;6733;51.044;3.746;2023-02-01T00:41:56;16.57;;;6.20;;
13327;SDS011;6733;51.044;3.746;2023-02-01T00:44:22;16.30;;;5.57;;
13327;SDS011;6733;51.044;3.746;2023-02-01T00:46:48;19.33;;;6.00;;
13327;SDS011;6733;51.044;3.746;2023-02-01T00:49:14;20.27;;;6.20;;
13327;SDS011;6733;51.044;3.746;2023-02-01T00:51:40;16.53;;;5.73;;
13327;SDS011;6733;51.044;3.746;2023-02-01T00:54:06;18.60;;;6.33;;
13327;SDS011;6733;51.044;3.746;2023-02-01T00:56:32;21.00;;;6.10;;
13327;SDS011;6733;51.044;3.746;2023-02-01T00:58:58;18.43;;;6.20;;
13327;SDS011;6733;51.044;3.746;2023-02-01T01:01:25;15.40;;;4.93;;
13327;SDS011;6733;51.044;3.746;2023-02-01T01:03:53;14.67;;;5.13;;
13327;SDS011;6733;51.044;3.746;2023-02-01T01:06:39;14.17;;;4.73;;
13327;SDS011;6733;51.044;3.746;2023-02-01T01:09:06;16.57;;;5.50;;
13327;SDS011;6733;51.044;3.746;2023-02-01T01:11:34;22.93;;;6.17;;
13327;SDS011;6733;51.044;3.746;2023-02-01T01:14:03;18.37;;;6.10;;
13327;SDS011;6733;51.044;3.746;2023-02-01T01:16:30;17.37;;;5.67;;
13327;SDS011;6733;51.044;3.746;2023-02-01T01:18:57;17.80;;;5.60;;
13327;SDS011;6733;51.044;3.746;2023-02-01T01:21:24;18.97;;;4.97;;
13327;SDS011;6733;51.044;3.746;2023-02-01T01:23:50;17.50;;;5.87;;
13327;SDS011;6733;51.044;3.746;2023-02-01T01:26:27;13.60;;;5.37;;
13327;SDS011;6733;51.044;3.746;2023-02-01T01:28:58;24.90;;;5.60;;
13327;SDS011;6733;51.044;3.746;2023-02-01T01:31:24;18.77;;;5.17;;
13327;SDS011;6733;51.044;3.746;2023-02-01T01:33:51;18.87;;;6.13;;
13327;SDS011;6733;51.044;3.746;2023-02-01T01:36:19;16.73;;;5.33;;
13327;SDS011;6733;51.044;3.746;2023-02-01T01:38:46;15.53;;;5.17;;
13327;SDS011;6733;51.044;3.746;2023-02-01T01:41:14;23.93;;;6.33;;
13327;SDS011;6733;51.044;3.746;2023-02-01T01:43:47;19.00;;;5.73;;
13327;SDS011;6733;51.044;3.746;2023-02-01T01:51:40;16.07;;;5.30;;
13327;SDS011;6733;51.044;3.746;2023-02-01T01:56:43;18.13;;;5.60;;
13327;SDS011;6733;51.044;3.746;2023-02-01T01:59:11;16.47;;;5.80;;
13327;SDS011;6733;51.044;3.746;2023-02-01T02:01:38;16.17;;;5.33;;
13327;SDS011;6733;51.044;3.746;2023-02-01T02:04:04;18.33;;;5.40;;
13327;SDS011;6733;51.044;3.746;2023-02-01T02:09:35;15.90;;;5.57;;
13327;SDS011;6733;51.044;3.746;2023-02-01T02:12:01;20.43;;;6.17;;
13327;SDS011;6733;51.044;3.746;2023-02-01T02:14:27;16.33;;;5.80;;
13327;SDS011;6733;51.044;3.746;2023-02-01T02:16:59;20.70;;;6.43;;
13327;SDS011;6733;51.044;3.746;2023-02-01T02:25:33;18.63;;;6.50;;
13327;SDS011;6733;51.044;3.746;2023-02-01T02:34:55;18.20;;;5.87;;
13327;SDS011;6733;51.044;3.746;2023-02-01T02:37:40;19.43;;;6.20;;
13327;SDS011;6733;51.044;3.746;2023-02-01T02:40:17;15.10;;;5.87;;
13327;SDS011;6733;51.044;3.746;2023-02-01T02:43:10;19.70;;;5.83;;
13327;SDS011;6733;51.044;3.746;2023-02-01T02:46:01;18.40;;;6.57;;
13327;SDS011;6733;51.044;3.746;2023-02-01T02:49:06;15.93;;;5.20;;
13327;SDS011;6733;51.044;3.746;2023-02-01T02:51:51;24.93;;;6.50;;
13327;SDS011;6733;51.044;3.746;2023-02-01T02:54:41;18.57;;;6.13;;
13327;SDS011;6733;51.044;3.746;2023-02-01T02:57:13;17.50;;;5.57;;
13327;SDS011;6733;51.044;3.746;2023-02-01T03:00:20;22.00;;;6.00;;
13327;SDS011;6733;51.044;3.746;2023-02-01T03:03:09;15.73;;;5.97;;
13327;SDS011;6733;51.044;3.746;2023-02-01T03:05:53;18.77;;;6.37;;
13327;SDS011;6733;51.044;3.746;2023-02-01T03:08:21;19.47;;;6.10;;
13327;SDS011;6733;51.044;3.746;2023-02-01T03:11:00;23.77;;;5.63;;
13327;SDS011;6733;51.044;3.746;2023-02-01T03:18:57;17.67;;;6.03;;
13327;SDS011;6733;51.044;3.746;2023-02-01T03:21:32;20.73;;;5.93;;
13327;SDS011;6733;51.044;3.746;2023-02-01T03:24:05;19.53;;;5.90;;
13327;SDS011;6733;51.044;3.746;2023-02-01T03:26:38;17.53;;;5.33;;
13327;SDS011;6733;51.044;3.746;2023-02-01T03:29:11;17.53;;;5.47;;
13327;SDS011;6733;51.044;3.746;2023-02-01T03:31:40;20.40;;;5.33;;
13327;SDS011;6733;51.044;3.746;2023-02-01T03:34:07;20.23;;;5.97;;
13327;SDS011;6733;51.044;3.746;2023-02-01T03:36:41;17.60;;;5.87;;
13327;SDS011;6733;51.044;3.746;2023-02-01T03:41:48;16.03;;;5.70;;
13327;SDS011;6733;51.044;3.746;2023-02-01T03:47:23;24.37;;;6.20;;
13327;SDS011;6733;51.044;3.746;2023-02-01T03:49:54;23.00;;;5.40;;
13327;SDS011;6733;51.044;3.746;2023-02-01T03:52:28;16.50;;;5.47;;
13327;SDS011;6733;51.044;3.746;2023-02-01T03:55:01;22.17;;;6.40;;
13327;SDS011;6733;51.044;3.746;2023-02-01T03:57:31;21.50;;;5.97;;
13327;SDS011;6733;51.044;3.746;2023-02-01T04:00:05;22.43;;;5.87;;
13327;SDS011;6733;51.044;3.746;2023-02-01T04:02:47;16.20;;;5.43;;
13327;SDS011;6733;51.044;3.746;2023-02-01T04:05:13;22.80;;;7.03;;
13327;SDS011;6733;51.044;3.746;2023-02-01T04:07:40;20.77;;;5.83;;
13327;SDS011;6733;51.044;3.746;2023-02-01T04:10:07;18.27;;;5.37;;
13327;SDS011;6733;51.044;3.746;2023-02-01T04:12:33;15.87;;;5.10;;
13327;SDS011;6733;51.044;3.746;2023-02-01T04:14:59;25.80;;;6.13;;
13327;SDS011;6733;51.044;3.746;2023-02-01T04:17:25;18.17;;;5.50;;
13327;SDS011;6733;51.044;3.746;2023-02-01T04:19:51;18.47;;;5.80;;
13327;SDS011;6733;51.044;3.746;2023-02-01T04:22:18;20.90;;;5.93;;
13327;SDS011;6733;51.044;3.746;2023-02-01T04:24:44;18.73;;;5.87;;
13327;SDS011;6733;51.044;3.746;2023-02-01T04:27:10;20.90;;;6.90;;
13327;SDS011;6733;51.044;3.746;2023-02-01T04:29:36;17.80;;;5.40;;
13327;SDS011;6733;51.044;3.746;2023-02-01T04:32:02;20.03;;;6.50;;
13327;SDS011;6733;51.044;3.746;2023-02-01T04:34:28;20.70;;;6.07;;
13327;SDS011;6733;51.044;3.746;2023-02-01T04:36:54;17.70;;;5.63;;
13327;SDS011;6733;51.044;3.746;2023-02-01T04:39:21;22.43;;;6.00;;
13327;SDS011;6733;51.044;3.746;2023-02-01T04:41:47;19.03;;;5.33;;
13327;SDS011;6733;51.044;3.746;2023-02-01T04:44:14;18.37;;;5.00;;
13327;SDS011;6733;51.044;3.746;2023-02-01T04:46:41;20.50;;;5.83;;
13327;SDS011;6733;51.044;3.746;2023-02-01T04:49:08;25.53;;;6.23;;
13327;SDS011;6733;51.044;3.746;2023-02-01T04:51:36;20.00;;;6.60;;
13327;SDS011;6733;51.044;3.746;2023-02-01T04:54:02;24.93;;;6.00;;
13327;SDS011;6733;51.044;3.746;2023-02-01T04:56:29;19.70;;;5.87;;
13327;SDS011;6733;51.044;3.746;2023-02-01T04:58:55;19.57;;;6.77;;
13327;SDS011;6733;51.044;3.746;2023-02-01T05:01:21;16.33;;;5.97;;
13327;SDS011;6733;51.044;3.746;2023-02-01T05:03:48;24.07;;;5.67;;
13327;SDS011;6733;51.044;3.746;2023-02-01T05:06:14;23.13;;;5.60;;
13327;SDS011;6733;51.044;3.746;2023-02-01T05:08:40;16.97;;;5.60;;
13327;SDS011;6733;51.044;3.746;2023-02-01T05:11:06;24.40;;;6.30;;
13327;SDS011;6733;51.044;3.746;2023-02-01T05:13:52;22.10;;;5.43;;
13327;SDS011;6733;51.044;3.746;2023-02-01T05:16:18;24.30;;;5.73;;
13327;SDS011;6733;51.044;3.746;2023-02-01T05:18:45;21.67;;;6.07;;
13327;SDS011;6733;51.044;3.746;2023-02-01T05:21:11;19.37;;;6.00;;
13327;SDS011;6733;51.044;3.746;2023-02-01T05:23:37;23.57;;;6.30;;
13327;SDS011;6733;51.044;3.746;2023-02-01T05:26:23;26.53;;;5.97;;
13327;SDS011;6733;51.044;3.746;2023-02-01T05:28:50;22.73;;;5.73;;
13327;SDS011;6733;51.044;3.746;2023-02-01T05:31:17;17.03;;;5.80;;
13327;SDS011;6733;51.044;3.746;2023-02-01T05:33:43;20.23;;;5.80;;
13327;SDS011;6733;51.044;3.746;2023-02-01T05:36:09;22.10;;;5.47;;
13327;SDS011;6733;51.044;3.746;2023-02-01T05:38:35;25.70;;;5.77;;
13327;SDS011;6733;51.044;3.746;2023-02-01T05:41:01;25.63;;;5.43;;
13327;SDS011;6733;51.044;3.746;2023-02-01T05:43:27;18.30;;;5.87;;
13327;SDS011;6733;51.044;3.746;2023-02-01T05:45:53;19.27;;;5.33;;
13327;SDS011;6733;51.044;3.746;2023-02-01T05:48:20;24.80;;;6.07;;
13327;SDS011;6733;51.044;3.746;2023-02-01T05:50:46;16.73;;;5.13;;
13327;SDS011;6733;51.044;3.746;2023-02-01T05:53:12;23.43;;;5.73;;
13327;SDS011;6733;51.044;3.746;2023-02-01T05:55:38;23.73;;;6.03;;
13327;SDS011;6733;51.044;3.746;2023-02-01T05:58:04;23.87;;;6.00;;
13327;SDS011;6733;51.044;3.746;2023-02-01T06:00:31;21.67;;;5.57;;
13327;SDS011;6733;51.044;3.746;2023-02-01T06:02:57;22.30;;;5.90;;
13327;SDS011;6733;51.044;3.746;2023-02-01T06:05:23;19.10;;;5.43;;
13327;SDS011;6733;51.044;3.746;2023-02-01T06:07:50;24.03;;;5.40;;
13327;SDS011;6733;51.044;3.746;2023-02-01T06:10:16;20.30;;;6.13;;
13327;SDS011;6733;51.044;3.746;2023-02-01T06:12:43;20.03;;;5.70;;
13327;SDS011;6733;51.044;3.746;2023-02-01T06:15:10;20.13;;;5.20;;
13327;SDS011;6733;51.044;3.746;2023-02-01T06:17:37;26.33;;;7.10;;
13327;SDS011;6733;51.044;3.746;2023-02-01T06:20:05;23.27;;;6.03;;
13327;SDS011;6733;51.044;3.746;2023-02-01T06:22:39;21.97;;;5.90;;
13327;SDS011;6733;51.044;3.746;2023-02-01T06:25:06;18.03;;;5.77;;
13327;SDS011;6733;51.044;3.746;2023-02-01T06:27:34;17.40;;;5.67;;
13327;SDS011;6733;51.044;3.746;2023-02-01T06:30:02;21.23;;;5.47;;
13327;SDS011;6733;51.044;3.746;2023-02-01T06:32:29;21.23;;;6.90;;
13327;SDS011;6733;51.044;3.746;2023-02-01T06:34:56;21.43;;;6.33;;
13327;SDS011;6733;51.044;3.746;2023-02-01T06:37:22;18.53;;;5.43;;
13327;SDS011;6733;51.044;3.746;2023-02-01T06:39:50;27.50;;;6.13;;
13327;SDS011;6733;51.044;3.746;2023-02-01T06:42:16;23.10;;;5.93;;
13327;SDS011;6733;51.044;3.746;2023-02-01T06:44:42;22.60;;;6.07;;
13327;SDS011;6733;51.044;3.746;2023-02-01T06:47:09;19.10;;;5.50;;
13327;SDS011;6733;51.044;3.746;2023-02-01T06:49:35;28.90;;;6.60;;
13327;SDS011;6733;51.044;3.746;2023-02-01T06:52:02;24.33;;;5.97;;
13327;SDS011;6733;51.044;3.746;2023-02-01T06:54:28;22.87;;;5.50;;
13327;SDS011;6733;51.044;3.746;2023-02-01T06:56:57;22.37;;;6.27;;
13327;SDS011;6733;51.044;3.746;2023-02-01T06:59:23;21.37;;;5.70;;
13327;SDS011;6733;51.044;3.746;2023-02-01T07:01:50;24.40;;;6.97;;
13327;SDS011;6733;51.044;3.746;2023-02-01T07:04:16;18.87;;;6.77;;
13327;SDS011;6733;51.044;3.746;2023-02-01T07:06:42;18.13;;;5.53;;
13327;SDS011;6733;51.044;3.746;2023-02-01T07:09:08;19.97;;;5.63;;
13327;SDS011;6733;51.044;3.746;2023-02-01T07:11:35;23.50;;;6.10;;
13327;SDS011;6733;51.044;3.746;2023-02-01T07:14:02;21.70;;;5.00;;
13327;SDS011;6733;51.044;3.746;2023-02-01T07:16:29;23.83;;;7.23;;
13327;SDS011;6733;51.044;3.746;2023-02-01T07:18:56;26.03;;;7.30;;
13327;SDS011;6733;51.044;3.746;2023-02-01T07:21:22;15.17;;;5.10;;
13327;SDS011;6733;51.044;3.746;2023-02-01T07:23:48;19.80;;;5.97;;
13327;SDS011;6733;51.044;3.746;2023-02-01T07:26:15;20.10;;;5.97;;
13327;SDS011;6733;51.044;3.746;2023-02-01T07:28:42;18.17;;;5.87;;
13327;SDS011;6733;51.044;3.746;2023-02-01T07:31:09;22.00;;;5.60;;
13327;SDS011;6733;51.044;3.746;2023-02-01T07:33:37;18.80;;;5.23;;
13327;SDS011;6733;51.044;3.746;2023-02-01T07:36:03;17.20;;;6.00;;
13327;SDS011;6733;51.044;3.746;2023-02-01T07:38:31;23.73;;;6.40;;
13327;SDS011;6733;51.044;3.746;2023-02-01T07:40:59;21.93;;;6.00;;
13327;SDS011;6733;51.044;3.746;2023-02-01T07:43:27;24.13;;;5.90;;
13327;SDS011;6733;51.044;3.746;2023-02-01T07:45:54;20.07;;;6.07;;
13327;SDS011;6733;51.044;3.746;2023-02-01T07:48:21;24.00;;;6.50;;
13327;SDS011;6733;51.044;3.746;2023-02-01T07:50:56;17.43;;;5.63;;
13327;SDS011;6733;51.044;3.746;2023-02-01T07:53:24;22.00;;;6.70;;
13327;SDS011;6733;51.044;3.746;2023-02-01T07:55:50;16.60;;;5.70;;
13327;SDS011;6733;51.044;3.746;2023-02-01T07:58:16;24.03;;;6.77;;
13327;SDS011;6733;51.044;3.746;2023-02-01T08:00:42;22.83;;;6.13;;
13327;SDS011;6733;51.044;3.746;2023-02-01T08:03:28;27.07;;;6.07;;
13327;SDS011;6733;51.044;3.746;2023-02-01T08:05:55;21.80;;;6.80;;
13327;SDS011;6733;51.044;3.746;2023-02-01T08:08:21;20.30;;;6.63;;
13327;SDS011;6733;51.044;3.746;2023-02-01T08:10:48;20.13;;;6.90;;
13327;SDS011;6733;51.044;3.746;2023-02-01T08:13:14;25.90;;;6.90;;
13327;SDS011;6733;51.044;3.746;2023-02-01T08:15:40;27.40;;;6.63;;
13327;SDS011;6733;51.044;3.746;2023-02-01T08:18:06;21.63;;;5.73;;
13327;SDS011;6733;51.044;3.746;2023-02-01T08:20:33;16.33;;;5.43;;
13327;SDS011;6733;51.044;3.746;2023-02-01T08:23:01;21.03;;;6.07;;
13327;SDS011;6733;51.044;3.746;2023-02-01T08:25:27;22.03;;;6.40;;
13327;SDS011;6733;51.044;3.746;2023-02-01T08:27:54;22.00;;;6.20;;
13327;SDS011;6733;51.044;3.746;2023-02-01T08:30:20;21.10;;;6.37;;
13327;SDS011;6733;51.044;3.746;2023-02-01T08:32:47;20.07;;;5.70;;
13327;SDS011;6733;51.044;3.746;2023-02-01T08:35:13;15.90;;;5.63;;
13327;SDS011;6733;51.044;3.746;2023-02-01T08:37:39;27.70;;;5.83;;
13327;SDS011;6733;51.044;3.746;2023-02-01T08:40:06;21.73;;;6.57;;
13327;SDS011;6733;51.044;3.746;2023-02-01T08:42:32;24.23;;;5.93;;
13327;SDS011;6733;51.044;3.746;2023-02-01T08:45:26;15.37;;;5.43;;
13327;SDS011;6733;51.044;3.746;2023-02-01T08:47:55;18.83;;;5.40;;
13327;SDS011;6733;51.044;3.746;2023-02-01T08:50:22;19.27;;;5.83;;
13327;SDS011;6733;51.044;3.746;2023-02-01T08:52:49;20.23;;;5.70;;
13327;SDS011;6733;51.044;3.746;2023-02-01T08:55:15;23.50;;;6.40;;
13327;SDS011;6733;51.044;3.746;2023-02-01T08:57:41;21.47;;;5.83;;
13327;SDS011;6733;51.044;3.746;2023-02-01T09:00:09;21.97;;;6.93;;
13327;SDS011;6733;51.044;3.746;2023-02-01T09:02:38;21.17;;;6.17;;
13327;SDS011;6733;51.044;3.746;2023-02-01T09:05:05;22.27;;;6.27;;
13327;SDS011;6733;51.044;3.746;2023-02-01T09:07:32;19.57;;;5.63;;
13327;SDS011;6733;51.044;3.746;2023-02-01T09:09:59;18.57;;;6.30;;
13327;SDS011;6733;51.044;3.746;2023-02-01T09:12:27;20.77;;;5.13;;
13327;SDS011;6733;51.044;3.746;2023-02-01T09:14:55;17.20;;;5.80;;
13327;SDS011;6733;51.044;3.746;2023-02-01T09:17:22;21.93;;;6.23;;
13327;SDS011;6733;51.044;3.746;2023-02-01T09:19:48;21.30;;;5.53;;
13327;SDS011;6733;51.044;3.746;2023-02-01T09:22:14;17.27;;;5.67;;
13327;SDS011;6733;51.044;3.746;2023-02-01T09:24:41;16.57;;;5.23;;
13327;SDS011;6733;51.044;3.746;2023-02-01T09:27:08;23.50;;;5.60;;
13327;SDS011;6733;51.044;3.746;2023-02-01T09:29:34;20.40;;;5.33;;
13327;SDS011;6733;51.044;3.746;2023-02-01T09:32:00;17.63;;;5.87;;
13327;SDS011;6733;51.044;3.746;2023-02-01T09:34:26;21.97;;;5.87;;
13327;SDS011;6733;51.044;3.746;2023-02-01T09:36:53;20.90;;;5.53;;
13327;SDS011;6733;51.044;3.746;2023-02-01T09:39:19;19.90;;;5.27;;
13327;SDS011;6733;51.044;3.746;2023-02-01T09:47:14;21.50;;;6.23;;
13327;SDS011;6733;51.044;3.746;2023-02-01T09:49:45;23.53;;;7.50;;
13327;SDS011;6733;51.044;3.746;2023-02-01T09:52:19;23.10;;;6.43;;
13327;SDS011;6733;51.044;3.746;2023-02-01T09:54:58;18.67;;;5.50;;
13327;SDS011;6733;51.044;3.746;2023-02-01T10:00:19;17.83;;;4.80;;
13327;SDS011;6733;51.044;3.746;2023-02-01T10:02:53;19.40;;;6.23;;
13327;SDS011;6733;51.044;3.746;2023-02-01T10:22:42;16.37;;;5.80;;
13327;SDS011;6733;51.044;3.746;2023-02-01T10:27:37;13.40;;;4.63;;
13327;SDS011;6733;51.044;3.746;2023-02-01T10:32:45;25.27;;;5.63;;
13327;SDS011;6733;51.044;3.746;2023-02-01T10:35:16;21.23;;;6.20;;
13327;SDS011;6733;51.044;3.746;2023-02-01T10:37:46;21.00;;;6.20;;
13327;SDS011;6733;51.044;3.746;2023-02-01T10:40:17;14.57;;;4.70;;
13327;SDS011;6733;51.044;3.746;2023-02-01T10:42:53;17.03;;;5.10;;
13327;SDS011;6733;51.044;3.746;2023-02-01T10:45:23;14.93;;;4.23;;
13327;SDS011;6733;51.044;3.746;2023-02-01T10:47:52;21.07;;;4.93;;
13327;SDS011;6733;51.044;3.746;2023-02-01T10:53:27;13.60;;;4.40;;
13327;SDS011;6733;51.044;3.746;2023-02-01T10:56:09;18.57;;;4.97;;
13327;SDS011;6733;51.044;3.746;2023-02-01T10:58:43;17.47;;;4.77;;
13327;SDS011;6733;51.044;3.746;2023-02-01T11:01:18;17.77;;;5.10;;
13327;SDS011;6733;51.044;3.746;2023-02-01T11:06:26;13.33;;;4.57;;
13327;SDS011;6733;51.044;3.746;2023-02-01T11:09:00;15.97;;;4.10;;
13327;SDS011;6733;51.044;3.746;2023-02-01T11:11:35;14.97;;;3.67;;
13327;SDS011;6733;51.044;3.746;2023-02-01T11:17:16;15.57;;;4.17;;
13327;SDS011;6733;51.044;3.746;2023-02-01T11:20:00;17.33;;;3.83;;
13327;SDS011;6733;51.044;3.746;2023-02-01T11:22:28;20.93;;;5.27;;
13327;SDS011;6733;51.044;3.746;2023-02-01T11:24:55;13.33;;;4.07;;
13327;SDS011;6733;51.044;3.746;2023-02-01T11:27:23;15.57;;;3.93;;
13327;SDS011;6733;51.044;3.746;2023-02-01T11:29:52;14.70;;;4.13;;
13327;SDS011;6733;51.044;3.746;2023-02-01T11:32:22;12.10;;;3.60;;
13327;SDS011;6733;51.044;3.746;2023-02-01T11:34:51;12.83;;;4.47;;
13327;SDS011;6733;51.044;3.746;2023-02-01T11:37:23;15.73;;;4.53;;
13327;SDS011;6733;51.044;3.746;2023-02-01T11:40:00;17.83;;;5.70;;
13327;SDS011;6733;51.044;3.746;2023-02-01T11:42:29;13.23;;;4.57;;
13327;SDS011;6733;51.044;3.746;2023-02-01T11:45:13;13.67;;;3.80;;
13327;SDS011;6733;51.044;3.746;2023-02-01T11:47:45;18.20;;;5.17;;
13327;SDS011;6733;51.044;3.746;2023-02-01T11:50:18;10.57;;;3.80;;
13327;SDS011;6733;51.044;3.746;2023-02-01T11:52:54;12.07;;;3.80;;
13327;SDS011;6733;51.044;3.746;2023-02-01T11:55:45;15.73;;;4.33;;
13327;SDS011;6733;51.044;3.746;2023-02-01T11:58:40;14.30;;;4.00;;
13327;SDS011;6733;51.044;3.746;2023-02-01T12:01:39;9.43;;;3.70;;
13327;SDS011;6733;51.044;3.746;2023-02-01T12:07:19;12.33;;;3.80;;
13327;SDS011;6733;51.044;3.746;2023-02-01T12:12:51;9.83;;;3.27;;
13327;SDS011;6733;51.044;3.746;2023-02-01T12:18:30;15.23;;;4.20;;
13327;SDS011;6733;51.044;3.746;2023-02-01T12:32:25;9.77;;;3.73;;
13327;SDS011;6733;51.044;3.746;2023-02-01T12:46:07;12.13;;;4.07;;
13327;SDS011;6733;51.044;3.746;2023-02-01T12:48:44;14.87;;;3.67;;
13327;SDS011;6733;51.044;3.746;2023-02-01T12:51:21;13.60;;;3.67;;
13327;SDS011;6733;51.044;3.746;2023-02-01T12:53:55;14.70;;;4.17;;
13327;SDS011;6733;51.044;3.746;2023-02-01T12:56:43;18.07;;;4.60;;
13327;SDS011;6733;51.044;3.746;2023-02-01T12:59:18;9.43;;;3.70;;
13327;SDS011;6733;51.044;3.746;2023-02-01T13:01:55;12.77;;;3.83;;
13327;SDS011;6733;51.044;3.746;2023-02-01T13:04:31;17.57;;;4.53;;
13327;SDS011;6733;51.044;3.746;2023-02-01T13:07:07;13.10;;;3.70;;
13327;SDS011;6733;51.044;3.746;2023-02-01T13:09:51;12.43;;;3.33;;
13327;SDS011;6733;51.044;3.746;2023-02-01T13:12:27;9.87;;;3.30;;
13327;SDS011;6733;51.044;3.746;2023-02-01T13:15:00;11.83;;;3.63;;
13327;SDS011;6733;51.044;3.746;2023-02-01T13:17:29;11.30;;;4.10;;
13327;SDS011;6733;51.044;3.746;2023-02-01T13:20:19;15.97;;;4.20;;
13327;SDS011;6733;51.044;3.746;2023-02-01T13:23:04;10.07;;;3.23;;
13327;SDS011;6733;51.044;3.746;2023-02-01T13:28:25;11.53;;;3.50;;
13327;SDS011;6733;51.044;3.746;2023-02-01T13:41:41;8.37;;;3.50;;
13327;SDS011;6733;51.044;3.746;2023-02-01T13:44:25;12.07;;;3.50;;
13327;SDS011;6733;51.044;3.746;2023-02-01T13:46:57;10.20;;;3.43;;
13327;SDS011;6733;51.044;3.746;2023-02-01T13:49:28;13.27;;;4.60;;
13327;SDS011;6733;51.044;3.746;2023-02-01T13:51:57;13.80;;;4.07;;
13327;SDS011;6733;51.044;3.746;2023-02-01T13:54:33;10.17;;;3.97;;
13327;SDS011;6733;51.044;3.746;2023-02-01T13:57:05;13.77;;;4.40;;
13327;SDS011;6733;51.044;3.746;2023-02-01T14:05:04;13.77;;;3.80;;
13327;SDS011;6733;51.044;3.746;2023-02-01T14:08:02;14.83;;;4.67;;
13327;SDS011;6733;51.044;3.746;2023-02-01T14:24:00;13.97;;;3.80;;
13327;SDS011;6733;51.044;3.746;2023-02-01T14:29:32;13.80;;;4.07;;
13327;SDS011;6733;51.044;3.746;2023-02-01T14:32:14;10.70;;;4.13;;
13327;SDS011;6733;51.044;3.746;2023-02-01T14:37:23;12.83;;;4.37;;
13327;SDS011;6733;51.044;3.746;2023-02-01T14:39:54;12.50;;;4.50;;
13327;SDS011;6733;51.044;3.746;2023-02-01T14:42:26;16.83;;;4.80;;
13327;SDS011;6733;51.044;3.746;2023-02-01T14:47:49;15.83;;;5.10;;
13327;SDS011;6733;51.044;3.746;2023-02-01T15:04:16;14.97;;;4.30;;
13327;SDS011;6733;51.044;3.746;2023-02-01T15:06:56;15.23;;;4.73;;
13327;SDS011;6733;51.044;3.746;2023-02-01T15:14:36;13.17;;;4.50;;
13327;SDS011;6733;51.044;3.746;2023-02-01T15:17:15;16.37;;;5.03;;
13327;SDS011;6733;51.044;3.746;2023-02-01T15:19:57;14.50;;;4.27;;
13327;SDS011;6733;51.044;3.746;2023-02-01T15:22:26;14.77;;;4.37;;
13327;SDS011;6733;51.044;3.746;2023-02-01T15:24:57;15.90;;;5.43;;
13327;SDS011;6733;51.044;3.746;2023-02-01T15:27:25;15.90;;;5.10;;
13327;SDS011;6733;51.044;3.746;2023-02-01T15:29:52;19.17;;;4.53;;
13327;SDS011;6733;51.044;3.746;2023-02-01T15:32:31;16.83;;;5.17;;
13327;SDS011;6733;51.044;3.746;2023-02-01T15:35:00;16.87;;;5.03;;
13327;SDS011;6733;51.044;3.746;2023-02-01T15:37:28;20.50;;;4.90;;
13327;SDS011;6733;51.044;3.746;2023-02-01T15:40:29;15.33;;;4.67;;
13327;SDS011;6733;51.044;3.746;2023-02-01T15:45:26;18.20;;;5.33;;
13327;SDS011;6733;51.044;3.746;2023-02-01T15:47:58;15.73;;;4.83;;
13327;SDS011;6733;51.044;3.746;2023-02-01T15:50:26;18.83;;;5.00;;
13327;SDS011;6733;51.044;3.746;2023-02-01T15:52:55;14.27;;;4.37;;
13327;SDS011;6733;51.044;3.746;2023-02-01T15:55:40;15.67;;;4.47;;
13327;SDS011;6733;51.044;3.746;2023-02-01T15:58:08;17.47;;;6.03;;
13327;SDS011;6733;51.044;3.746;2023-02-01T16:00:45;29.70;;;5.43;;
13327;SDS011;6733;51.044;3.746;2023-02-01T16:06:01;15.20;;;4.77;;
13327;SDS011;6733;51.044;3.746;2023-02-01T16:08:30;17.50;;;4.90;;
13327;SDS011;6733;51.044;3.746;2023-02-01T16:11:01;17.30;;;5.00;;
13327;SDS011;6733;51.044;3.746;2023-02-01T16:13:33;18.43;;;4.77;;
13327;SDS011;6733;51.044;3.746;2023-02-01T16:15:59;19.60;;;5.17;;
13327;SDS011;6733;51.044;3.746;2023-02-01T16:18:26;22.43;;;6.53;;
13327;SDS011;6733;51.044;3.746;2023-02-01T16:20:52;14.27;;;5.80;;
13327;SDS011;6733;51.044;3.746;2023-02-01T16:23:18;17.10;;;4.90;;
13327;SDS011;6733;51.044;3.746;2023-02-01T16:25:46;17.13;;;4.70;;
13327;SDS011;6733;51.044;3.746;2023-02-01T16:28:12;12.80;;;4.67;;
13327;SDS011;6733;51.044;3.746;2023-02-01T16:30:38;21.47;;;5.33;;
13327;SDS011;6733;51.044;3.746;2023-02-01T16:33:04;15.13;;;5.20;;
13327;SDS011;6733;51.044;3.746;2023-02-01T16:35:36;19.30;;;5.67;;
13327;SDS011;6733;51.044;3.746;2023-02-01T16:38:04;18.53;;;5.27;;
13327;SDS011;6733;51.044;3.746;2023-02-01T16:40:38;18.23;;;5.30;;
13327;SDS011;6733;51.044;3.746;2023-02-01T16:43:16;20.67;;;5.50;;
13327;SDS011;6733;51.044;3.746;2023-02-01T16:45:44;19.57;;;5.20;;
13327;SDS011;6733;51.044;3.746;2023-02-01T16:48:24;16.30;;;5.27;;
13327;SDS011;6733;51.044;3.746;2023-02-01T16:51:04;15.60;;;4.70;;
13327;SDS011;6733;51.044;3.746;2023-02-01T16:53:35;22.07;;;5.90;;
13327;SDS011;6733;51.044;3.746;2023-02-01T16:56:01;24.30;;;6.57;;
13327;SDS011;6733;51.044;3.746;2023-02-01T16:58:30;17.10;;;5.33;;
13327;SDS011;6733;51.044;3.746;2023-02-01T17:00:56;19.40;;;5.90;;
13327;SDS011;6733;51.044;3.746;2023-02-01T17:03:22;21.53;;;5.70;;
13327;SDS011;6733;51.044;3.746;2023-02-01T17:05:50;23.07;;;5.60;;
13327;SDS011;6733;51.044;3.746;2023-02-01T17:08:28;22.67;;;5.67;;
13327;SDS011;6733;51.044;3.746;2023-02-01T17:11:00;19.57;;;6.93;;
13327;SDS011;6733;51.044;3.746;2023-02-01T17:13:27;21.70;;;6.13;;
13327;SDS011;6733;51.044;3.746;2023-02-01T17:16:03;24.50;;;6.20;;
13327;SDS011;6733;51.044;3.746;2023-02-01T17:18:32;22.53;;;6.63;;
13327;SDS011;6733;51.044;3.746;2023-02-01T17:21:00;22.37;;;5.63;;
13327;SDS011;6733;51.044;3.746;2023-02-01T17:23:29;26.80;;;5.90;;
13327;SDS011;6733;51.044;3.746;2023-02-01T17:25:56;25.20;;;5.70;;
13327;SDS011;6733;51.044;3.746;2023-02-01T17:28:23;25.20;;;6.10;;
13327;SDS011;6733;51.044;3.746;2023-02-01T17:30:50;15.10;;;5.17;;
13327;SDS011;6733;51.044;3.746;2023-02-01T17:33:19;15.87;;;5.83;;
13327;SDS011;6733;51.044;3.746;2023-02-01T17:35:55;18.27;;;5.63;;
13327;SDS011;6733;51.044;3.746;2023-02-01T17:38:25;22.27;;;6.27;;
13327;SDS011;6733;51.044;3.746;2023-02-01T17:40:51;30.23;;;7.00;;
13327;SDS011;6733;51.044;3.746;2023-02-01T17:43:22;18.27;;;5.70;;
13327;SDS011;6733;51.044;3.746;2023-02-01T17:45:54;22.67;;;6.07;;
13327;SDS011;6733;51.044;3.746;2023-02-01T17:48:26;20.63;;;4.93;;
13327;SDS011;6733;51.044;3.746;2023-02-01T17:50:53;17.80;;;6.60;;
13327;SDS011;6733;51.044;3.746;2023-02-01T17:53:23;21.90;;;6.00;;
13327;SDS011;6733;51.044;3.746;2023-02-01T17:55:51;20.00;;;6.20;;
13327;SDS011;6733;51.044;3.746;2023-02-01T17:58:18;20.27;;;5.93;;